sensor_id;sensor_type;location;lat;lon;timestamp;pressure;altitude;pressure_sealevel;temperature;humidity
54172;BME280;40076;52.354;4.970;2023-01-26T00:00:57;102560.84;;;1.00;100.00
54172;BME280;40076;52.354;4.970;2023-01-26T00:03:26;102561.47;;;1.02;100.00
54172;BME280;40076;52.354;4.970;2023-01-26T00:05:52;102549.81;;;1.03;100.00
54172;BME280;40076;52.354;4.970;2023-01-26T00:08:17;102548.56;;;1.06;100.00
54172;BME280;40076;52.354;4.970;2023-01-26T00:10:43;102544.47;;;1.03;100.00
54172;BME280;40076;52.354;4.970;2023-01-26T00:13:17;102545.50;;;1.02;100.00
54172;BME280;40076;52.354;4.970;2023-01-26T00:15:44;102542.63;;;1.04;100.00
54172;BME280;40076;52.354;4.970;2023-01-26T00:18:09;102534.66;;;1.04;100.00
54172;BME280;40076;52.354;4.970;2023-01-26T00:20:34;102539.16;;;1.03;100.00
54172;BME280;40076;52.354;4.970;2023-01-26T00:23:00;102531.97;;;1.04;100.00
54172;BME280;40076;52.354;4.970;2023-01-26T00:25:25;102524.00;;;1.04;100.00
54172;BME280;40076;52.354;4.970;2023-01-26T00:27:51;102518.69;;;1.04;100.00
54172;BME280;40076;52.354;4.970;2023-01-26T00:30:16;102515.41;;;1.02;100.00
54172;BME280;40076;52.354;4.970;2023-01-26T00:32:42;102514.38;;;1.03;100.00
54172;BME280;40076;52.354;4.970;2023-01-26T00:35:07;102514.97;;;1.05;100.00
54172;BME280;40076;52.354;4.970;2023-01-26T00:37:33;102511.50;;;1.04;100.00
54172;BME280;40076;52.354;4.970;2023-01-26T00:39:58;102510.47;;;1.05;100.00
54172;BME280;40076;52.354;4.970;2023-01-26T00:42:24;102509.88;;;1.03;100.00
54172;BME280;40076;52.354;4.970;2023-01-26T00:44:50;102510.69;;;1.04;100.00
54172;BME280;40076;52.354;4.970;2023-01-26T00:47:18;102504.53;;;1.03;100.00
54172;BME280;40076;52.354;4.970;2023-01-26T00:49:44;102506.19;;;1.04;100.00
54172;BME280;40076;52.354;4.970;2023-01-26T00:52:12;102507.81;;;1.05;100.00
54172;BME280;40076;52.354;4.970;2023-01-26T00:54:41;102509.22;;;1.08;100.00
54172;BME280;40076;52.354;4.970;2023-01-26T00:57:06;102501.47;;;1.06;100.00
54172;BME280;40076;52.354;4.970;2023-01-26T00:59:32;102502.88;;;1.09;100.00
54172;BME280;40076;52.354;4.970;2023-01-26T01:01:58;102497.53;;;1.09;100.00
54172;BME280;40076;52.354;4.970;2023-01-26T01:04:25;102499.19;;;1.10;100.00
54172;BME280;40076;52.354;4.970;2023-01-26T01:06:53;102505.53;;;1.09;100.00
54172;BME280;40076;52.354;4.970;2023-01-26T01:09:18;102501.03;;;1.09;100.00
54172;BME280;40076;52.354;4.970;2023-01-26T01:11:43;102496.16;;;1.06;100.00
54172;BME280;40076;52.354;4.970;2023-01-26T01:14:13;102493.25;;;1.08;100.00
54172;BME280;40076;52.354;4.970;2023-01-26T01:16:39;102491.59;;;1.07;100.00
54172;BME280;40076;52.354;4.970;2023-01-26T01:19:05;102491.41;;;1.08;100.00
54172;BME280;40076;52.354;4.970;2023-01-26T01:21:31;102493.25;;;1.08;100.00
54172;BME280;40076;52.354;4.970;2023-01-26T01:23:57;102500.00;;;1.10;100.00
54172;BME280;40076;52.354;4.970;2023-01-26T01:26:22;102498.97;;;1.11;100.00
54172;BME280;40076;52.354;4.970;2023-01-26T01:28:52;102509.63;;;1.11;100.00
54172;BME280;40076;52.354;4.970;2023-01-26T01:31:18;102502.44;;;1.12;100.00
54172;BME280;40076;52.354;4.970;2023-01-26T01:33:43;102499.78;;;1.12;100.00
54172;BME280;40076;52.354;4.970;2023-01-26T01:36:11;102497.13;;;1.12;100.00
54172;BME280;40076;52.354;4.970;2023-01-26T01:38:37;102503.84;;;1.14;100.00
54172;BME280;40076;52.354;4.970;2023-01-26T01:41:02;102503.06;;;1.14;100.00
54172;BME280;40076;52.354;4.970;2023-01-26T01:43:28;102504.44;;;1.16;100.00
54172;BME280;40076;52.354;4.970;2023-01-26T01:45:54;102500.97;;;1.16;100.00
54172;BME280;40076;52.354;4.970;2023-01-26T01:51:04;102508.53;;;1.19;100.00
54172;BME280;40076;52.354;4.970;2023-01-26T01:53:35;102507.50;;;1.20;100.00
54172;BME280;40076;52.354;4.970;2023-01-26T01:56:05;102506.50;;;1.21;100.00
54172;BME280;40076;52.354;4.970;2023-01-26T01:58:36;102506.69;;;1.20;100.00
54172;BME280;40076;52.354;4.970;2023-01-26T02:01:03;102512.03;;;1.20;100.00
54172;BME280;40076;52.354;4.970;2023-01-26T02:03:29;102507.50;;;1.20;100.00
54172;BME280;40076;52.354;4.970;2023-01-26T02:06:09;102507.50;;;1.20;100.00
54172;BME280;40076;52.354;4.970;2023-01-26T02:08:39;102505.06;;;1.19;100.00
54172;BME280;40076;52.354;4.970;2023-01-26T02:11:08;102508.53;;;1.19;100.00
54172;BME280;40076;52.354;4.970;2023-01-26T02:13:35;102517.34;;;1.20;100.00
54172;BME280;40076;52.354;4.970;2023-01-26T02:16:02;102512.63;;;1.22;100.00
54172;BME280;40076;52.354;4.970;2023-01-26T02:18:27;102512.63;;;1.22;100.00
54172;BME280;40076;52.354;4.970;2023-01-26T02:20:59;102504.84;;;1.20;100.00
54172;BME280;40076;52.354;4.970;2023-01-26T02:23:30;102507.06;;;1.23;100.00
54172;BME280;40076;52.354;4.970;2023-01-26T02:26:21;102512.38;;;1.23;100.00
54172;BME280;40076;52.354;4.970;2023-01-26T02:28:47;102506.25;;;1.23;100.00
54172;BME280;40076;52.354;4.970;2023-01-26T02:31:14;102510.34;;;1.25;100.00
54172;BME280;40076;52.354;4.970;2023-01-26T02:33:43;102510.94;;;1.27;100.00
54172;BME280;40076;52.354;4.970;2023-01-26T02:36:22;102511.16;;;1.26;100.00
54172;BME280;40076;52.354;4.970;2023-01-26T02:41:53;102510.94;;;1.27;100.00
54172;BME280;40076;52.354;4.970;2023-01-26T02:44:42;102510.75;;;1.29;100.00
54172;BME280;40076;52.354;4.970;2023-01-26T02:47:13;102509.91;;;1.28;100.00
54172;BME280;40076;52.354;4.970;2023-01-26T02:49:39;102513.16;;;1.30;100.00
54172;BME280;40076;52.354;4.970;2023-01-26T02:52:23;102506.00;;;1.31;100.00
54172;BME280;40076;52.354;4.970;2023-01-26T02:54:50;102508.66;;;1.31;100.00
54172;BME280;40076;52.354;4.970;2023-01-26T02:57:37;102511.91;;;1.33;100.00
54172;BME280;40076;52.354;4.970;2023-01-26T03:00:05;102516.22;;;1.34;100.00
54172;BME280;40076;52.354;4.970;2023-01-26T03:02:31;102514.38;;;1.34;100.00
54172;BME280;40076;52.354;4.970;2023-01-26T03:04:57;102510.69;;;1.35;100.00
54172;BME280;40076;52.354;4.970;2023-01-26T03:07:22;102512.06;;;1.38;100.00
54172;BME280;40076;52.354;4.970;2023-01-26T03:09:48;102513.50;;;1.40;100.00
54172;BME280;40076;52.354;4.970;2023-01-26T03:12:14;102510.84;;;1.40;100.00
54172;BME280;40076;52.354;4.970;2023-01-26T03:14:42;102510.63;;;1.42;100.00
54172;BME280;40076;52.354;4.970;2023-01-26T03:17:07;102508.56;;;1.44;100.00
54172;BME280;40076;52.354;4.970;2023-01-26T03:19:33;102515.75;;;1.43;100.00
54172;BME280;40076;52.354;4.970;2023-01-26T03:22:16;102514.25;;;1.47;100.00
54172;BME280;40076;52.354;4.970;2023-01-26T03:25:01;102525.38;;;1.44;100.00
54172;BME280;40076;52.354;4.970;2023-01-26T03:27:58;102520.25;;;1.43;100.00
54172;BME280;40076;52.354;4.970;2023-01-26T03:30:23;102529.88;;;1.44;100.00
54172;BME280;40076;52.354;4.970;2023-01-26T03:32:49;102531.88;;;1.48;100.00
54172;BME280;40076;52.354;4.970;2023-01-26T03:35:14;102523.69;;;1.50;100.00
54172;BME280;40076;52.354;4.970;2023-01-26T03:37:43;102529.63;;;1.52;100.00
54172;BME280;40076;52.354;4.970;2023-01-26T03:40:10;102524.06;;;1.53;100.00
54172;BME280;40076;52.354;4.970;2023-01-26T03:42:55;102524.44;;;1.57;100.00
54172;BME280;40076;52.354;4.970;2023-01-26T03:45:42;102521.78;;;1.57;100.00
54172;BME280;40076;52.354;4.970;2023-01-26T03:48:26;102525.06;;;1.59;100.00
54172;BME280;40076;52.354;4.970;2023-01-26T03:51:10;102519.47;;;1.61;100.00
54172;BME280;40076;52.354;4.970;2023-01-26T03:53:54;102521.72;;;1.64;100.00
54172;BME280;40076;52.354;4.970;2023-01-26T03:56:38;102518.03;;;1.65;100.00
54172;BME280;40076;52.354;4.970;2023-01-26T03:59:05;102516.19;;;1.65;100.00
54172;BME280;40076;52.354;4.970;2023-01-26T04:01:42;102507.97;;;1.67;100.00
54172;BME280;40076;52.354;4.970;2023-01-26T04:04:26;102500.78;;;1.67;100.00
54172;BME280;40076;52.354;4.970;2023-01-26T04:07:10;102508.78;;;1.67;100.00
54172;BME280;40076;52.354;4.970;2023-01-26T04:09:54;102511.22;;;1.69;100.00
54172;BME280;40076;52.354;4.970;2023-01-26T04:12:22;102504.63;;;1.71;100.00
54172;BME280;40076;52.354;4.970;2023-01-26T04:14:48;102510.56;;;1.73;100.00
54172;BME280;40076;52.354;4.970;2023-01-26T04:17:31;102504.78;;;1.76;100.00
54172;BME280;40076;52.354;4.970;2023-01-26T04:20:15;102505.41;;;1.78;100.00
54172;BME280;40076;52.354;4.970;2023-01-26T04:22:59;102510.28;;;1.81;100.00
54172;BME280;40076;52.354;4.970;2023-01-26T04:25:25;102510.09;;;1.83;100.00
54172;BME280;40076;52.354;4.970;2023-01-26T04:27:50;102510.44;;;1.86;100.00
54172;BME280;40076;52.354;4.970;2023-01-26T04:30:16;102505.72;;;1.88;100.00
54172;BME280;40076;52.354;4.970;2023-01-26T04:32:42;102506.06;;;1.92;100.00
54172;BME280;40076;52.354;4.970;2023-01-26T04:35:13;102509.56;;;1.92;100.00
54172;BME280;40076;52.354;4.970;2023-01-26T04:37:38;102502.78;;;1.97;100.00
54172;BME280;40076;52.354;4.970;2023-01-26T04:40:05;102509.75;;;1.98;100.00
54172;BME280;40076;52.354;4.970;2023-01-26T04:42:31;102502.91;;;2.02;100.00
54172;BME280;40076;52.354;4.970;2023-01-26T04:44:56;102502.69;;;2.03;100.00
54172;BME280;40076;52.354;4.970;2023-01-26T04:47:22;102501.44;;;2.06;100.00
54172;BME280;40076;52.354;4.970;2023-01-26T04:49:47;102499.34;;;2.08;100.00
54172;BME280;40076;52.354;4.970;2023-01-26T04:52:13;102500.56;;;2.12;100.00
54172;BME280;40076;52.354;4.970;2023-01-26T04:54:39;102500.34;;;2.13;100.00
54172;BME280;40076;52.354;4.970;2023-01-26T04:57:04;102494.75;;;2.15;100.00
54172;BME280;40076;52.354;4.970;2023-01-26T04:59:30;102494.53;;;2.16;100.00
54172;BME280;40076;52.354;4.970;2023-01-26T05:01:55;102497.00;;;2.18;100.00
54172;BME280;40076;52.354;4.970;2023-01-26T05:04:20;102504.78;;;2.19;100.00
54172;BME280;40076;52.354;4.970;2023-01-26T05:06:46;102502.69;;;2.21;100.00
54172;BME280;40076;52.354;4.970;2023-01-26T05:09:18;102500.63;;;2.23;100.00
54172;BME280;40076;52.354;4.970;2023-01-26T05:11:43;102498.56;;;2.25;100.00
54172;BME280;40076;52.354;4.970;2023-01-26T05:14:08;102491.97;;;2.28;100.00
54172;BME280;40076;52.354;4.970;2023-01-26T05:16:34;102495.22;;;2.30;100.00
54172;BME280;40076;52.354;4.970;2023-01-26T05:18:59;102506.69;;;2.30;100.00
54172;BME280;40076;52.354;4.970;2023-01-26T05:21:25;102501.97;;;2.32;100.00
54172;BME280;40076;52.354;4.970;2023-01-26T05:23:52;102494.56;;;2.35;100.00
54172;BME280;40076;52.354;4.970;2023-01-26T05:26:17;102497.78;;;2.37;100.00
54172;BME280;40076;52.354;4.970;2023-01-26T05:28:45;102494.91;;;2.38;100.00
54172;BME280;40076;52.354;4.970;2023-01-26T05:31:10;102492.84;;;2.40;100.00
54172;BME280;40076;52.354;4.970;2023-01-26T05:33:36;102499.81;;;2.41;100.00
54172;BME280;40076;52.354;4.970;2023-01-26T05:36:05;102503.06;;;2.43;100.00
54172;BME280;40076;52.354;4.970;2023-01-26T05:38:31;102504.69;;;2.44;100.00
54172;BME280;40076;52.354;4.970;2023-01-26T05:40:57;102515.72;;;2.48;100.00
54172;BME280;40076;52.354;4.970;2023-01-26T05:43:28;102512.03;;;2.49;100.00
54172;BME280;40076;52.354;4.970;2023-01-26T05:45:54;102512.63;;;2.51;100.00
54172;BME280;40076;52.354;4.970;2023-01-26T05:48:23;102509.72;;;2.52;100.00
54172;BME280;40076;52.354;4.970;2023-01-26T05:50:48;102521.00;;;2.54;100.00
54172;BME280;40076;52.354;4.970;2023-01-26T05:53:13;102517.06;;;2.57;100.00
54172;BME280;40076;52.354;4.970;2023-01-26T05:55:39;102513.38;;;2.58;100.00
54172;BME280;40076;52.354;4.970;2023-01-26T05:58:07;102520.91;;;2.61;100.00
54172;BME280;40076;52.354;4.970;2023-01-26T06:00:32;102523.13;;;2.64;100.00
54172;BME280;40076;52.354;4.970;2023-01-26T06:02:57;102517.94;;;2.69;100.00
54172;BME280;40076;52.354;4.970;2023-01-26T06:05:23;102520.75;;;2.74;100.00
54172;BME280;40076;52.354;4.970;2023-01-26T06:07:48;102520.66;;;2.81;100.00
54172;BME280;40076;52.354;4.970;2023-01-26T06:10:13;102530.44;;;2.87;100.00
54172;BME280;40076;52.354;4.970;2023-01-26T06:12:39;102534.66;;;2.94;100.00
54172;BME280;40076;52.354;4.970;2023-01-26T06:15:09;102527.34;;;3.01;100.00
54172;BME280;40076;52.354;4.970;2023-01-26T06:17:36;102526.22;;;3.09;100.00
54172;BME280;40076;52.354;4.970;2023-01-26T06:20:02;102536.59;;;3.17;100.00
54172;BME280;40076;52.354;4.970;2023-01-26T06:22:27;102528.47;;;3.24;100.00
54172;BME280;40076;52.354;4.970;2023-01-26T06:24:52;102532.66;;;3.31;100.00
54172;BME280;40076;52.354;4.970;2023-01-26T06:27:18;102538.94;;;3.37;100.00
54172;BME280;40076;52.354;4.970;2023-01-26T06:29:44;102539.09;;;3.42;100.00
54172;BME280;40076;52.354;4.970;2023-01-26T06:32:11;102546.63;;;3.45;100.00
54172;BME280;40076;52.354;4.970;2023-01-26T06:34:36;102544.13;;;3.50;100.00
54172;BME280;40076;52.354;4.970;2023-01-26T06:37:03;102546.91;;;3.55;100.00
54172;BME280;40076;52.354;4.970;2023-01-26T06:39:28;102549.13;;;3.58;100.00
54172;BME280;40076;52.354;4.970;2023-01-26T06:41:54;102562.59;;;3.63;100.00
54172;BME280;40076;52.354;4.970;2023-01-26T06:44:19;102552.84;;;3.69;100.00
54172;BME280;40076;52.354;4.970;2023-01-26T06:46:45;102558.31;;;3.74;100.00
54172;BME280;40076;52.354;4.970;2023-01-26T06:49:13;102564.84;;;3.78;100.00
54172;BME280;40076;52.354;4.970;2023-01-26T06:51:57;102564.13;;;3.82;100.00
54172;BME280;40076;52.354;4.970;2023-01-26T06:54:23;102560.19;;;3.85;100.00
54172;BME280;40076;52.354;4.970;2023-01-26T06:56:48;102574.97;;;3.87;100.00
54172;BME280;40076;52.354;4.970;2023-01-26T06:59:14;102572.06;;;3.89;100.00
54172;BME280;40076;52.354;4.970;2023-01-26T07:01:44;102576.94;;;3.92;100.00
54172;BME280;40076;52.354;4.970;2023-01-26T07:04:11;102579.72;;;3.97;100.00
54172;BME280;40076;52.354;4.970;2023-01-26T07:06:36;102581.94;;;4.00;100.00
54172;BME280;40076;52.354;4.970;2023-01-26T07:09:02;102581.22;;;4.05;100.00
54172;BME280;40076;52.354;4.970;2023-01-26T07:11:28;102588.81;;;4.08;100.00
54172;BME280;40076;52.354;4.970;2023-01-26T07:13:55;102583.00;;;4.11;100.00
54172;BME280;40076;52.354;4.970;2023-01-26T07:16:20;102594.03;;;4.14;100.00
54172;BME280;40076;52.354;4.970;2023-01-26T07:18:45;102596.47;;;4.16;100.00
54172;BME280;40076;52.354;4.970;2023-01-26T07:21:16;102597.06;;;4.18;100.00
54172;BME280;40076;52.354;4.970;2023-01-26T07:23:47;102594.97;;;4.20;100.00
54172;BME280;40076;52.354;4.970;2023-01-26T07:26:13;102599.84;;;4.23;100.00
54172;BME280;40076;52.354;4.970;2023-01-26T07:28:39;102606.84;;;4.24;100.00
54172;BME280;40076;52.354;4.970;2023-01-26T07:31:05;102606.84;;;4.24;100.00
54172;BME280;40076;52.354;4.970;2023-01-26T07:33:32;102600.22;;;4.26;100.00
54172;BME280;40076;52.354;4.970;2023-01-26T07:35:58;102606.38;;;4.27;100.00
54172;BME280;40076;52.354;4.970;2023-01-26T07:38:25;102609.38;;;4.31;100.00
54172;BME280;40076;52.354;4.970;2023-01-26T07:40:51;102609.38;;;4.31;100.00
54172;BME280;40076;52.354;4.970;2023-01-26T07:43:17;102608.94;;;4.34;100.00
54172;BME280;40076;52.354;4.970;2023-01-26T07:45:50;102611.63;;;4.34;100.00
54172;BME280;40076;52.354;4.970;2023-01-26T07:48:17;102613.25;;;4.35;100.00
54172;BME280;40076;52.354;4.970;2023-01-26T07:50:44;102613.25;;;4.35;100.00
54172;BME280;40076;52.354;4.970;2023-01-26T07:53:11;102621.03;;;4.36;100.00
54172;BME280;40076;52.354;4.970;2023-01-26T07:55:39;102629.88;;;4.37;100.00
54172;BME280;40076;52.354;4.970;2023-01-26T07:58:09;102624.28;;;4.38;100.00
54172;BME280;40076;52.354;4.970;2023-01-26T08:00:34;102622.19;;;4.40;100.00
54172;BME280;40076;52.354;4.970;2023-01-26T08:02:59;102629.75;;;4.43;100.00
54172;BME280;40076;52.354;4.970;2023-01-26T08:05:25;102636.72;;;4.44;100.00
54172;BME280;40076;52.354;4.970;2023-01-26T08:07:50;102632.19;;;4.45;100.00
54172;BME280;40076;52.354;4.970;2023-01-26T08:10:32;102631.97;;;4.46;100.00
54172;BME280;40076;52.354;4.970;2023-01-26T08:12:58;102636.50;;;4.46;100.00
54172;BME280;40076;52.354;4.970;2023-01-26T08:15:27;102636.28;;;4.47;100.00
54172;BME280;40076;52.354;4.970;2023-01-26T08:17:53;102639.53;;;4.49;100.00
54172;BME280;40076;52.354;4.970;2023-01-26T08:20:19;102631.50;;;4.49;100.00
54172;BME280;40076;52.354;4.970;2023-01-26T08:22:45;102645.22;;;4.53;100.00
54172;BME280;40076;52.354;4.970;2023-01-26T08:25:13;102638.22;;;4.52;100.00
54172;BME280;40076;52.354;4.970;2023-01-26T08:27:41;102637.19;;;4.53;100.00
54172;BME280;40076;52.354;4.970;2023-01-26T08:30:07;102649.31;;;4.55;100.00
54172;BME280;40076;52.354;4.970;2023-01-26T08:32:33;102651.97;;;4.55;100.00
54172;BME280;40076;52.354;4.970;2023-01-26T08:34:58;102651.16;;;4.55;100.00
54172;BME280;40076;52.354;4.970;2023-01-26T08:37:24;102651.97;;;4.55;100.00
54172;BME280;40076;52.354;4.970;2023-01-26T08:39:49;102661.06;;;4.54;100.00
54172;BME280;40076;52.354;4.970;2023-01-26T08:42:14;102662.09;;;4.53;100.00
54172;BME280;40076;52.354;4.970;2023-01-26T08:44:43;102662.91;;;4.54;100.00
54172;BME280;40076;52.354;4.970;2023-01-26T08:47:08;102660.81;;;4.56;100.00
54172;BME280;40076;52.354;4.970;2023-01-26T08:49:34;102661.66;;;4.56;100.00
54172;BME280;40076;52.354;4.970;2023-01-26T08:52:02;102667.56;;;4.58;100.00
54172;BME280;40076;52.354;4.970;2023-01-26T08:54:28;102669.41;;;4.58;100.00
54172;BME280;40076;52.354;4.970;2023-01-26T08:56:53;102663.84;;;4.59;100.00
54172;BME280;40076;52.354;4.970;2023-01-26T08:59:19;102664.88;;;4.58;100.00
54172;BME280;40076;52.354;4.970;2023-01-26T09:01:44;102670.81;;;4.60;100.00
54172;BME280;40076;52.354;4.970;2023-01-26T09:04:13;102679.44;;;4.62;100.00
54172;BME280;40076;52.354;4.970;2023-01-26T09:06:38;102691.78;;;4.63;100.00
54172;BME280;40076;52.354;4.970;2023-01-26T09:09:06;102684.31;;;4.65;100.00
54172;BME280;40076;52.354;4.970;2023-01-26T09:11:41;102682.44;;;4.66;100.00
54172;BME280;40076;52.354;4.970;2023-01-26T09:14:06;102684.09;;;4.67;100.00
54172;BME280;40076;52.354;4.970;2023-01-26T09:16:32;102690.25;;;4.68;100.00
54172;BME280;40076;52.354;4.970;2023-01-26T09:18:57;102693.28;;;4.71;100.00
54172;BME280;40076;52.354;4.970;2023-01-26T09:21:25;102684.44;;;4.71;100.00
54172;BME280;40076;52.354;4.970;2023-01-26T09:23:50;102683.41;;;4.72;100.00
54172;BME280;40076;52.354;4.970;2023-01-26T09:26:16;102687.72;;;4.73;100.00
54172;BME280;40076;52.354;4.970;2023-01-26T09:28:41;102687.22;;;4.76;100.00
54172;BME280;40076;52.354;4.970;2023-01-26T09:31:08;102690.50;;;4.78;100.00
54172;BME280;40076;52.354;4.970;2023-01-26T09:33:34;102692.13;;;4.79;100.00
54172;BME280;40076;52.354;4.970;2023-01-26T09:36:03;102687.59;;;4.79;100.00
54172;BME280;40076;52.354;4.970;2023-01-26T09:38:34;102695.25;;;4.87;100.00
54172;BME280;40076;52.354;4.970;2023-01-26T09:43:57;102685.47;;;4.93;100.00
54172;BME280;40076;52.354;4.970;2023-01-26T09:49:29;102690.69;;;4.99;100.00
54172;BME280;40076;52.354;4.970;2023-01-26T09:52:08;102691.28;;;5.01;100.00
54172;BME280;40076;52.354;4.970;2023-01-26T09:54:40;102689.75;;;5.05;100.00
54172;BME280;40076;52.354;4.970;2023-01-26T09:57:19;102694.63;;;5.09;100.00
54172;BME280;40076;52.354;4.970;2023-01-26T10:00:00;102697.66;;;5.12;100.00
54172;BME280;40076;52.354;4.970;2023-01-26T10:02:37;102692.88;;;5.14;100.00
54172;BME280;40076;52.354;4.970;2023-01-26T10:05:30;102701.81;;;5.20;100.00
54172;BME280;40076;52.354;4.970;2023-01-26T10:07:58;102689.81;;;5.22;100.00
54172;BME280;40076;52.354;4.970;2023-01-26T10:10:43;102690.16;;;5.26;100.00
54172;BME280;40076;52.354;4.970;2023-01-26T10:13:14;102695.03;;;5.29;100.00
54172;BME280;40076;52.354;4.970;2023-01-26T10:15:47;102691.91;;;5.32;100.00
54172;BME280;40076;52.354;4.970;2023-01-26T10:18:29;102687.91;;;5.34;100.00
54172;BME280;40076;52.354;4.970;2023-01-26T10:21:02;102689.66;;;5.40;100.00
54172;BME280;40076;52.354;4.970;2023-01-26T10:23:33;102692.88;;;5.42;100.00
54172;BME280;40076;52.354;4.970;2023-01-26T10:26:22;102689.50;;;5.47;100.00
54172;BME280;40076;52.354;4.970;2023-01-26T10:28:52;102696.25;;;5.50;100.00
54172;BME280;40076;52.354;4.970;2023-01-26T10:31:26;102701.97;;;5.53;100.00
54172;BME280;40076;52.354;4.970;2023-01-26T10:33:54;102706.28;;;5.54;100.00
54172;BME280;40076;52.354;4.970;2023-01-26T10:36:24;102701.00;;;5.59;100.00
54172;BME280;40076;52.354;4.970;2023-01-26T10:38:55;102703.22;;;5.62;100.00
54172;BME280;40076;52.354;4.970;2023-01-26T10:41:30;102712.16;;;5.68;100.00
54172;BME280;40076;52.354;4.970;2023-01-26T10:46:33;102708.03;;;5.77;100.00
54172;BME280;40076;52.354;4.970;2023-01-26T10:49:13;102713.47;;;5.82;100.00
54172;BME280;40076;52.354;4.970;2023-01-26T10:51:44;102711.16;;;5.86;100.00
54172;BME280;40076;52.354;4.970;2023-01-26T10:57:13;102713.19;;;5.95;100.00
54172;BME280;40076;52.354;4.970;2023-01-26T10:59:54;102707.94;;;6.00;100.00
54172;BME280;40076;52.354;4.970;2023-01-26T11:02:26;102705.56;;;6.04;100.00
54172;BME280;40076;52.354;4.970;2023-01-26T11:10:17;102706.41;;;6.21;100.00
54172;BME280;40076;52.354;4.970;2023-01-26T11:12:43;102706.47;;;6.26;100.00
54172;BME280;40076;52.354;4.970;2023-01-26T11:15:23;102695.03;;;6.31;100.00
54172;BME280;40076;52.354;4.970;2023-01-26T11:32:09;102701.56;;;6.56;100.00
54172;BME280;40076;52.354;4.970;2023-01-26T11:37:46;102709.72;;;6.62;100.00
54172;BME280;40076;52.354;4.970;2023-01-26T11:51:50;102706.44;;;6.76;100.00
54172;BME280;40076;52.354;4.970;2023-01-26T12:00:17;102690.97;;;6.83;100.00
54172;BME280;40076;52.354;4.970;2023-01-26T12:02:49;102695.03;;;6.86;100.00
54172;BME280;40076;52.354;4.970;2023-01-26T12:05:22;102688.34;;;6.88;100.00
54172;BME280;40076;52.354;4.970;2023-01-26T12:07:53;102685.16;;;6.91;100.00
54172;BME280;40076;52.354;4.970;2023-01-26T12:10:28;102682.47;;;6.91;100.00
54172;BME280;40076;52.354;4.970;2023-01-26T12:13:19;102677.97;;;6.97;100.00
54172;BME280;40076;52.354;4.970;2023-01-26T12:15:53;102673.97;;;7.00;100.00
54172;BME280;40076;52.354;4.970;2023-01-26T12:18:34;102668.38;;;7.01;100.00
54172;BME280;40076;52.354;4.970;2023-01-26T12:21:13;102663.53;;;7.03;100.00
54172;BME280;40076;52.354;4.970;2023-01-26T12:24:00;102665.72;;;7.06;100.00
54172;BME280;40076;52.354;4.970;2023-01-26T12:26:31;102654.72;;;7.08;100.00
54172;BME280;40076;52.354;4.970;2023-01-26T12:29:20;102648.03;;;7.10;100.00
54172;BME280;40076;52.354;4.970;2023-01-26T12:32:10;102642.41;;;7.12;100.00
54172;BME280;40076;52.354;4.970;2023-01-26T12:34:36;102652.91;;;7.13;100.00
54172;BME280;40076;52.354;4.970;2023-01-26T12:39:32;102639.50;;;7.18;100.00
54172;BME280;40076;52.354;4.970;2023-01-26T12:55:21;102626.19;;;7.28;100.00
54172;BME280;40076;52.354;4.970;2023-01-26T12:57:53;102630.50;;;7.29;100.00
54172;BME280;40076;52.354;4.970;2023-01-26T13:00:24;102628.38;;;7.31;100.00
54172;BME280;40076;52.354;4.970;2023-01-26T13:03:23;102610.91;;;7.34;100.00
54172;BME280;40076;52.354;4.970;2023-01-26T13:05:56;102611.97;;;7.33;100.00
54172;BME280;40076;52.354;4.970;2023-01-26T13:11:07;102613.59;;;7.34;100.00
54172;BME280;40076;52.354;4.970;2023-01-26T13:13:51;102629.75;;;7.34;100.00
54172;BME280;40076;52.354;4.970;2023-01-26T13:18:56;102625.41;;;7.33;100.00
54172;BME280;40076;52.354;4.970;2023-01-26T13:26:57;102624.88;;;7.31;100.00
54172;BME280;40076;52.354;4.970;2023-01-26T13:29:31;102617.63;;;7.31;100.00
54172;BME280;40076;52.354;4.970;2023-01-26T13:32:49;102613.59;;;7.34;100.00
54172;BME280;40076;52.354;4.970;2023-01-26T13:34:55;102618.44;;;7.32;100.00
54172;BME280;40076;52.354;4.970;2023-01-26T13:37:49;102623.00;;;7.31;100.00
54172;BME280;40076;52.354;4.970;2023-01-26T13:40:22;102620.03;;;7.33;100.00
54172;BME280;40076;52.354;4.970;2023-01-26T13:42:56;102630.25;;;7.31;100.00
54172;BME280;40076;52.354;4.970;2023-01-26T13:45:45;102630.50;;;7.29;100.00
54172;BME280;40076;52.354;4.970;2023-01-26T13:48:29;102629.94;;;7.27;100.00
54172;BME280;40076;52.354;4.970;2023-01-26T13:50:59;102636.38;;;7.26;100.00
54172;BME280;40076;52.354;4.970;2023-01-26T13:53:34;102641.72;;;7.21;100.00
54172;BME280;40076;52.354;4.970;2023-01-26T13:56:03;102632.34;;;7.24;100.00
54172;BME280;40076;52.354;4.970;2023-01-26T13:58:29;102627.78;;;7.24;100.00
54172;BME280;40076;52.354;4.970;2023-01-26T14:01:09;102619.94;;;7.23;100.00
54172;BME280;40076;52.354;4.970;2023-01-26T14:03:41;102618.06;;;7.23;100.00
54172;BME280;40076;52.354;4.970;2023-01-26T14:06:19;102619.94;;;7.23;100.00
54172;BME280;40076;52.354;4.970;2023-01-26T14:08:55;102614.56;;;7.23;100.00
54172;BME280;40076;52.354;4.970;2023-01-26T14:11:23;102617.25;;;7.23;100.00
54172;BME280;40076;52.354;4.970;2023-01-26T14:13:51;102608.38;;;7.22;100.00
54172;BME280;40076;52.354;4.970;2023-01-26T14:16:29;102604.34;;;7.25;100.00
54172;BME280;40076;52.354;4.970;2023-01-26T14:21:44;102617.56;;;7.26;100.00
54172;BME280;40076;52.354;4.970;2023-01-26T14:24:13;102607.63;;;7.27;100.00
54172;BME280;40076;52.354;4.970;2023-01-26T14:26:39;102621.38;;;7.30;100.00
54172;BME280;40076;52.354;4.970;2023-01-26T14:29:10;102624.31;;;7.29;100.00
54172;BME280;40076;52.354;4.970;2023-01-26T14:31:36;102625.13;;;7.29;100.00